SDU weather

Santos Dumont Airport
Rio De Janeiro, Rio de Janeiro, Brazil

Public forecast

Using degrees Celsius for public forecast. Weather courtesy of forecast.io.

Current aviation weather report (METAR) for Santos Dumont Airport

Retrieved 2019/10/18 13:00 UTC (25 minutes ago):

SBRJ 181300Z 18010KT 9999 SCT025 SCT090 26/22 Q1017

Aviation forecast (TAF) for Santos Dumont Airport

Retrieved 2019/10/18 12:33 UTC (52 minutes ago):

TAF SBRJ 180939Z 1812/1824 01005KT 9999 SCT020 FEW025TCUTX32/1817Z TN25/1824Z TEMPO 1812/1815 21010KT 4000 SHRA BKN010 FEW025TCU BECMG 1815/1817 15010KT BECMG 1820/1822 21010KT FEW025 RMK PHI